Warning: Javascript must be enabled to use all the features on this page!


Page Loading - Please Wait...

Click to hideNews Bulletins

Peak Streamflow for the Nation

USGS 11044300 SANTA MARGARITA R A FPUD SUMP NR FALLBROOK CA

San Diego County, California
Hydrologic Unit Code 18070302
Latitude  33°24'49", Longitude 117°14'25" NAD27
Drainage area 620  square miles
Output formats
Table
Graph
Tab-separated file
peakfq (watstore) format
Reselect output format
Water
Year
Date Gage
Height
(feet)
Stream-
flow
(cfs)
1990 1990-02-18 4.24 9246
1991 1991-03-27 12.571 15,0002,6
1992 1992-02-12 10.44 10,7006
1993 1993-01-16 15.89 34,0006
1994 1994-02-07 7.15 4,7706
1995 1995-01-10 9.07 8,7506
1996 1996-02-01 4.75 2,1906
1997 1996-11-22 4.65 2,0506
1998 1998-02-24 11.27 19,0006
1999 1999-01-26 2.60 1946
2000 2000-02-21 5.55 3,5106
2001 2001-01-11 3.97 1,5606
2002 2001-11-25 2.88 4376
2003 2003-02-25 7.35 6,4506
2004 2004-02-26 5.34 3,1106
2005 2005-01-11   17,0006
2006 2006-01-02 4.66 2,0606,C
2007 2007-02-23 2.30 99.06,C
2008 2007-12-01 6.54 5,4806,C
2009 2008-12-15 5.25 3,5106,C
2010 2010-01-21 10.46 10,6002,6,C
2011 2010-12-22 13.26 25,5006,C
2012 2012-03-26   3502,6,C
2013 2013-03-08 3.31 6006,C
2014 2014-03-01   1,5501,2,6,8,C
2015 2014-12-04 4.075 1,3302,6,C
2016 2016-01-06 4.065 1,3206,C
2017 2017-01-22 10.98 18,1006,C
2018 2018-01-09 6.59 4,9806,C
2019 2019-02-14 13.06 23,0006,C
2020 2020-04-10 8.36 7,4206,C
2021 2020-12-29 4.39 1,6406,C
?
  Peak Gage-Height Qualification Codes.
?
  Peak Streamflow Qualification Codes.